sensor_id;sensor_type;location;lat;lon;timestamp;temperature;humidity
14901;DHT22;7542;49.078;9.194;2023-06-10T00:00:35;27.50;42.40
14901;DHT22;7542;49.078;9.194;2023-06-10T00:01:37;27.50;42.40
14901;DHT22;7542;49.078;9.194;2023-06-10T00:02:40;27.50;42.50
14901;DHT22;7542;49.078;9.194;2023-06-10T00:03:43;27.60;42.50
14901;DHT22;7542;49.078;9.194;2023-06-10T00:04:45;27.50;42.50
14901;DHT22;7542;49.078;9.194;2023-06-10T00:05:48;27.50;42.50
14901;DHT22;7542;49.078;9.194;2023-06-10T00:06:50;27.50;42.40
14901;DHT22;7542;49.078;9.194;2023-06-10T00:07:53;27.50;42.50
14901;DHT22;7542;49.078;9.194;2023-06-10T00:08:56;27.50;42.50
14901;DHT22;7542;49.078;9.194;2023-06-10T00:09:59;27.60;42.50
14901;DHT22;7542;49.078;9.194;2023-06-10T00:11:03;28.10;43.00
14901;DHT22;7542;49.078;9.194;2023-06-10T00:12:07;27.60;42.60
14901;DHT22;7542;49.078;9.194;2023-06-10T00:13:13;27.70;42.50
14901;DHT22;7542;49.078;9.194;2023-06-10T00:14:15;27.60;42.40
14901;DHT22;7542;49.078;9.194;2023-06-10T00:15:17;27.70;42.30
14901;DHT22;7542;49.078;9.194;2023-06-10T00:16:19;27.70;42.30
14901;DHT22;7542;49.078;9.194;2023-06-10T00:17:21;27.60;42.30
14901;DHT22;7542;49.078;9.194;2023-06-10T00:18:24;27.70;42.30
14901;DHT22;7542;49.078;9.194;2023-06-10T00:19:28;27.60;42.30
14901;DHT22;7542;49.078;9.194;2023-06-10T00:20:33;27.70;42.30
14901;DHT22;7542;49.078;9.194;2023-06-10T00:21:37;27.60;42.30
14901;DHT22;7542;49.078;9.194;2023-06-10T00:22:42;27.70;42.30
14901;DHT22;7542;49.078;9.194;2023-06-10T00:23:47;25.70;41.40
14901;DHT22;7542;49.078;9.194;2023-06-10T00:24:50;27.70;42.30
14901;DHT22;7542;49.078;9.194;2023-06-10T00:25:52;27.70;42.30
14901;DHT22;7542;49.078;9.194;2023-06-10T00:26:54;27.60;42.30
14901;DHT22;7542;49.078;9.194;2023-06-10T00:27:56;27.60;42.30
14901;DHT22;7542;49.078;9.194;2023-06-10T00:28:59;27.60;42.30
14901;DHT22;7542;49.078;9.194;2023-06-10T00:30:03;27.60;42.30
14901;DHT22;7542;49.078;9.194;2023-06-10T00:31:09;27.60;42.40
14901;DHT22;7542;49.078;9.194;2023-06-10T00:32:10;27.70;42.40
14901;DHT22;7542;49.078;9.194;2023-06-10T00:33:13;27.60;42.40
14901;DHT22;7542;49.078;9.194;2023-06-10T00:34:14;27.60;42.40
14901;DHT22;7542;49.078;9.194;2023-06-10T00:35:16;27.60;42.40
14901;DHT22;7542;49.078;9.194;2023-06-10T00:36:19;27.60;42.50
14901;DHT22;7542;49.078;9.194;2023-06-10T00:37:21;27.60;42.50
14901;DHT22;7542;49.078;9.194;2023-06-10T00:38:23;27.60;42.50
14901;DHT22;7542;49.078;9.194;2023-06-10T00:39:25;27.60;42.50
14901;DHT22;7542;49.078;9.194;2023-06-10T00:40:27;27.70;42.50
14901;DHT22;7542;49.078;9.194;2023-06-10T00:41:29;27.70;42.60
14901;DHT22;7542;49.078;9.194;2023-06-10T00:42:31;27.70;42.70
14901;DHT22;7542;49.078;9.194;2023-06-10T00:43:33;27.60;42.80
14901;DHT22;7542;49.078;9.194;2023-06-10T00:44:35;27.60;42.80
14901;DHT22;7542;49.078;9.194;2023-06-10T00:45:37;27.80;42.80
14901;DHT22;7542;49.078;9.194;2023-06-10T00:46:40;27.70;43.00
14901;DHT22;7542;49.078;9.194;2023-06-10T00:47:43;27.70;43.00
14901;DHT22;7542;49.078;9.194;2023-06-10T00:48:46;27.70;43.10
14901;DHT22;7542;49.078;9.194;2023-06-10T00:49:49;27.70;43.20
14901;DHT22;7542;49.078;9.194;2023-06-10T00:50:52;27.70;43.30
14901;DHT22;7542;49.078;9.194;2023-06-10T00:51:55;27.80;43.30
14901;DHT22;7542;49.078;9.194;2023-06-10T00:52:58;27.80;43.30
14901;DHT22;7542;49.078;9.194;2023-06-10T00:54:01;27.80;43.40
14901;DHT22;7542;49.078;9.194;2023-06-10T00:55:05;27.80;43.40
14901;DHT22;7542;49.078;9.194;2023-06-10T00:56:10;27.80;43.40
14901;DHT22;7542;49.078;9.194;2023-06-10T00:57:12;27.80;43.50
14901;DHT22;7542;49.078;9.194;2023-06-10T00:58:17;27.70;43.50
14901;DHT22;7542;49.078;9.194;2023-06-10T00:59:20;27.80;43.60
14901;DHT22;7542;49.078;9.194;2023-06-10T01:00:22;27.70;43.60
14901;DHT22;7542;49.078;9.194;2023-06-10T01:01:24;27.80;43.70
14901;DHT22;7542;49.078;9.194;2023-06-10T01:02:28;27.80;43.80
14901;DHT22;7542;49.078;9.194;2023-06-10T01:03:30;27.70;43.80
14901;DHT22;7542;49.078;9.194;2023-06-10T01:04:34;27.70;43.80
14901;DHT22;7542;49.078;9.194;2023-06-10T01:05:38;27.70;43.80
14901;DHT22;7542;49.078;9.194;2023-06-10T01:10:12;27.70;44.00
14901;DHT22;7542;49.078;9.194;2023-06-10T01:11:25;27.70;44.00
14901;DHT22;7542;49.078;9.194;2023-06-10T01:14:04;27.60;44.00
14901;DHT22;7542;49.078;9.194;2023-06-10T01:15:09;27.70;44.10
14901;DHT22;7542;49.078;9.194;2023-06-10T01:16:12;27.80;44.10
14901;DHT22;7542;49.078;9.194;2023-06-10T01:17:15;27.70;44.10
14901;DHT22;7542;49.078;9.194;2023-06-10T01:18:18;27.70;44.10
14901;DHT22;7542;49.078;9.194;2023-06-10T01:19:21;27.70;44.10
14901;DHT22;7542;49.078;9.194;2023-06-10T01:20:26;27.60;44.10
14901;DHT22;7542;49.078;9.194;2023-06-10T01:21:31;27.70;44.20
14901;DHT22;7542;49.078;9.194;2023-06-10T01:22:35;27.70;44.20
14901;DHT22;7542;49.078;9.194;2023-06-10T01:23:38;27.70;44.20
14901;DHT22;7542;49.078;9.194;2023-06-10T01:24:40;27.70;44.20
14901;DHT22;7542;49.078;9.194;2023-06-10T01:25:49;27.80;44.20
14901;DHT22;7542;49.078;9.194;2023-06-10T01:27:01;27.70;44.20
14901;DHT22;7542;49.078;9.194;2023-06-10T01:28:40;27.70;44.20
14901;DHT22;7542;49.078;9.194;2023-06-10T01:29:56;27.70;44.30
14901;DHT22;7542;49.078;9.194;2023-06-10T01:32:43;27.70;44.40
14901;DHT22;7542;49.078;9.194;2023-06-10T01:33:49;27.70;44.40
14901;DHT22;7542;49.078;9.194;2023-06-10T01:34:55;27.70;44.50
14901;DHT22;7542;49.078;9.194;2023-06-10T01:35:58;27.70;44.50
14901;DHT22;7542;49.078;9.194;2023-06-10T01:37:02;27.70;44.40
14901;DHT22;7542;49.078;9.194;2023-06-10T01:38:06;27.70;44.50
14901;DHT22;7542;49.078;9.194;2023-06-10T01:39:11;27.70;44.60
14901;DHT22;7542;49.078;9.194;2023-06-10T01:40:16;27.70;44.60
14901;DHT22;7542;49.078;9.194;2023-06-10T01:41:18;27.70;44.60
14901;DHT22;7542;49.078;9.194;2023-06-10T01:42:23;27.60;44.70
14901;DHT22;7542;49.078;9.194;2023-06-10T01:43:26;27.60;44.60
14901;DHT22;7542;49.078;9.194;2023-06-10T01:44:28;27.70;44.60
14901;DHT22;7542;49.078;9.194;2023-06-10T01:45:30;27.70;44.70
14901;DHT22;7542;49.078;9.194;2023-06-10T01:46:32;27.60;44.70
14901;DHT22;7542;49.078;9.194;2023-06-10T01:47:34;27.60;44.70
14901;DHT22;7542;49.078;9.194;2023-06-10T01:48:37;27.60;44.70
14901;DHT22;7542;49.078;9.194;2023-06-10T01:49:40;27.60;44.70
14901;DHT22;7542;49.078;9.194;2023-06-10T01:50:42;27.70;44.70
14901;DHT22;7542;49.078;9.194;2023-06-10T01:51:45;27.60;44.70
14901;DHT22;7542;49.078;9.194;2023-06-10T01:52:47;27.60;44.80
14901;DHT22;7542;49.078;9.194;2023-06-10T01:53:49;27.70;44.70
14901;DHT22;7542;49.078;9.194;2023-06-10T01:54:51;27.60;44.70
14901;DHT22;7542;49.078;9.194;2023-06-10T01:55:53;27.60;44.70
14901;DHT22;7542;49.078;9.194;2023-06-10T01:56:55;27.60;44.70
14901;DHT22;7542;49.078;9.194;2023-06-10T01:57:57;27.60;44.80
14901;DHT22;7542;49.078;9.194;2023-06-10T01:58:59;27.70;44.80
14901;DHT22;7542;49.078;9.194;2023-06-10T02:00:01;27.70;44.80
14901;DHT22;7542;49.078;9.194;2023-06-10T02:01:05;27.60;44.80
14901;DHT22;7542;49.078;9.194;2023-06-10T02:02:07;27.60;44.70
14901;DHT22;7542;49.078;9.194;2023-06-10T02:03:09;27.60;44.70
14901;DHT22;7542;49.078;9.194;2023-06-10T02:04:11;27.60;44.80
14901;DHT22;7542;49.078;9.194;2023-06-10T02:05:13;27.60;44.80
14901;DHT22;7542;49.078;9.194;2023-06-10T02:06:15;27.60;44.80
14901;DHT22;7542;49.078;9.194;2023-06-10T02:07:17;29.90;45.80
14901;DHT22;7542;49.078;9.194;2023-06-10T02:08:20;27.60;44.70
14901;DHT22;7542;49.078;9.194;2023-06-10T02:09:22;27.60;44.80
14901;DHT22;7542;49.078;9.194;2023-06-10T02:10:24;27.60;44.80
14901;DHT22;7542;49.078;9.194;2023-06-10T02:11:26;27.60;44.80
14901;DHT22;7542;49.078;9.194;2023-06-10T02:12:29;27.60;44.80
14901;DHT22;7542;49.078;9.194;2023-06-10T02:13:30;27.60;44.80
14901;DHT22;7542;49.078;9.194;2023-06-10T02:14:33;27.60;44.80
14901;DHT22;7542;49.078;9.194;2023-06-10T02:15:35;27.60;44.80
14901;DHT22;7542;49.078;9.194;2023-06-10T02:16:37;27.60;44.80
14901;DHT22;7542;49.078;9.194;2023-06-10T02:17:39;27.50;44.90
14901;DHT22;7542;49.078;9.194;2023-06-10T02:18:41;27.50;44.80
14901;DHT22;7542;49.078;9.194;2023-06-10T02:19:44;27.50;44.80
14901;DHT22;7542;49.078;9.194;2023-06-10T02:20:54;27.60;44.70
14901;DHT22;7542;49.078;9.194;2023-06-10T02:21:56;27.50;44.70
14901;DHT22;7542;49.078;9.194;2023-06-10T02:22:59;27.50;44.70
14901;DHT22;7542;49.078;9.194;2023-06-10T02:24:01;27.60;44.70
14901;DHT22;7542;49.078;9.194;2023-06-10T02:25:04;27.60;44.60
14901;DHT22;7542;49.078;9.194;2023-06-10T02:26:07;27.50;44.60
14901;DHT22;7542;49.078;9.194;2023-06-10T02:27:09;27.60;44.60
14901;DHT22;7542;49.078;9.194;2023-06-10T02:28:11;33.40;47.70
14901;DHT22;7542;49.078;9.194;2023-06-10T02:29:13;27.50;44.70
14901;DHT22;7542;49.078;9.194;2023-06-10T02:30:15;27.50;44.70
14901;DHT22;7542;49.078;9.194;2023-06-10T02:31:17;27.50;44.70
14901;DHT22;7542;49.078;9.194;2023-06-10T02:32:20;27.50;44.70
14901;DHT22;7542;49.078;9.194;2023-06-10T02:33:22;27.50;44.70
14901;DHT22;7542;49.078;9.194;2023-06-10T02:34:25;27.50;44.70
14901;DHT22;7542;49.078;9.194;2023-06-10T02:35:28;27.50;44.80
14901;DHT22;7542;49.078;9.194;2023-06-10T02:36:29;27.50;44.80
14901;DHT22;7542;49.078;9.194;2023-06-10T02:37:31;27.50;44.80
14901;DHT22;7542;49.078;9.194;2023-06-10T02:38:33;27.50;44.80
14901;DHT22;7542;49.078;9.194;2023-06-10T02:39:36;27.50;44.80
14901;DHT22;7542;49.078;9.194;2023-06-10T02:40:38;27.50;44.80
14901;DHT22;7542;49.078;9.194;2023-06-10T02:41:40;27.70;44.70
14901;DHT22;7542;49.078;9.194;2023-06-10T02:42:42;27.50;44.80
14901;DHT22;7542;49.078;9.194;2023-06-10T02:43:44;27.50;44.90
14901;DHT22;7542;49.078;9.194;2023-06-10T02:44:46;27.50;44.90
14901;DHT22;7542;49.078;9.194;2023-06-10T02:45:48;27.60;44.90
14901;DHT22;7542;49.078;9.194;2023-06-10T02:46:50;27.50;44.90
14901;DHT22;7542;49.078;9.194;2023-06-10T02:47:52;27.50;44.90
14901;DHT22;7542;49.078;9.194;2023-06-10T02:48:54;27.50;44.90
14901;DHT22;7542;49.078;9.194;2023-06-10T02:49:56;27.50;44.90
14901;DHT22;7542;49.078;9.194;2023-06-10T02:50:58;27.50;44.90
14901;DHT22;7542;49.078;9.194;2023-06-10T02:52:00;27.60;45.00
14901;DHT22;7542;49.078;9.194;2023-06-10T02:53:02;27.50;45.00
14901;DHT22;7542;49.078;9.194;2023-06-10T02:54:04;27.50;44.90
14901;DHT22;7542;49.078;9.194;2023-06-10T02:55:07;27.50;44.90
14901;DHT22;7542;49.078;9.194;2023-06-10T02:56:09;27.40;44.90
14901;DHT22;7542;49.078;9.194;2023-06-10T02:57:11;27.40;44.90
14901;DHT22;7542;49.078;9.194;2023-06-10T02:58:13;27.40;44.90
14901;DHT22;7542;49.078;9.194;2023-06-10T02:59:15;27.50;45.00
14901;DHT22;7542;49.078;9.194;2023-06-10T03:00:17;27.40;45.00
14901;DHT22;7542;49.078;9.194;2023-06-10T03:01:21;27.40;45.10
14901;DHT22;7542;49.078;9.194;2023-06-10T03:02:24;27.40;45.10
14901;DHT22;7542;49.078;9.194;2023-06-10T03:03:30;27.50;45.20
14901;DHT22;7542;49.078;9.194;2023-06-10T03:04:32;27.40;45.20
14901;DHT22;7542;49.078;9.194;2023-06-10T03:05:34;27.50;45.20
14901;DHT22;7542;49.078;9.194;2023-06-10T03:06:36;27.50;45.20
14901;DHT22;7542;49.078;9.194;2023-06-10T03:07:40;27.40;45.20
14901;DHT22;7542;49.078;9.194;2023-06-10T03:08:42;27.30;45.20
14901;DHT22;7542;49.078;9.194;2023-06-10T03:09:44;27.40;45.20
14901;DHT22;7542;49.078;9.194;2023-06-10T03:10:46;27.30;45.30
14901;DHT22;7542;49.078;9.194;2023-06-10T03:11:48;27.30;45.30
14901;DHT22;7542;49.078;9.194;2023-06-10T03:12:50;27.40;45.30
14901;DHT22;7542;49.078;9.194;2023-06-10T03:13:52;27.40;45.40
14901;DHT22;7542;49.078;9.194;2023-06-10T03:14:57;27.40;45.40
14901;DHT22;7542;49.078;9.194;2023-06-10T03:15:59;27.40;45.50
14901;DHT22;7542;49.078;9.194;2023-06-10T03:17:02;27.30;45.50
14901;DHT22;7542;49.078;9.194;2023-06-10T03:18:04;27.30;45.50
14901;DHT22;7542;49.078;9.194;2023-06-10T03:19:08;27.40;45.50
14901;DHT22;7542;49.078;9.194;2023-06-10T03:20:11;27.40;45.60
14901;DHT22;7542;49.078;9.194;2023-06-10T03:21:14;27.30;45.60
14901;DHT22;7542;49.078;9.194;2023-06-10T03:22:16;27.40;45.60
14901;DHT22;7542;49.078;9.194;2023-06-10T03:23:19;27.30;45.60
14901;DHT22;7542;49.078;9.194;2023-06-10T03:24:21;27.30;45.50
14901;DHT22;7542;49.078;9.194;2023-06-10T03:25:23;27.30;45.50
14901;DHT22;7542;49.078;9.194;2023-06-10T03:26:27;27.30;45.50
14901;DHT22;7542;49.078;9.194;2023-06-10T03:27:29;27.30;45.50
14901;DHT22;7542;49.078;9.194;2023-06-10T03:28:32;27.40;45.50
14901;DHT22;7542;49.078;9.194;2023-06-10T03:29:34;27.30;45.50
14901;DHT22;7542;49.078;9.194;2023-06-10T03:30:36;27.30;45.50
14901;DHT22;7542;49.078;9.194;2023-06-10T03:31:38;27.20;45.50
14901;DHT22;7542;49.078;9.194;2023-06-10T03:32:40;27.20;45.50
14901;DHT22;7542;49.078;9.194;2023-06-10T03:33:42;27.30;45.60
14901;DHT22;7542;49.078;9.194;2023-06-10T03:34:44;27.30;45.50
14901;DHT22;7542;49.078;9.194;2023-06-10T03:35:46;27.10;45.60
14901;DHT22;7542;49.078;9.194;2023-06-10T03:36:48;27.30;45.60
14901;DHT22;7542;49.078;9.194;2023-06-10T03:37:51;27.40;45.60
14901;DHT22;7542;49.078;9.194;2023-06-10T03:38:53;27.30;45.60
14901;DHT22;7542;49.078;9.194;2023-06-10T03:39:58;27.20;45.60
14901;DHT22;7542;49.078;9.194;2023-06-10T03:41:00;27.30;45.70
14901;DHT22;7542;49.078;9.194;2023-06-10T03:42:02;27.30;45.70
14901;DHT22;7542;49.078;9.194;2023-06-10T03:43:04;27.20;45.70
14901;DHT22;7542;49.078;9.194;2023-06-10T03:44:06;27.30;45.70
14901;DHT22;7542;49.078;9.194;2023-06-10T03:45:09;27.30;45.70
14901;DHT22;7542;49.078;9.194;2023-06-10T03:46:11;27.20;45.70
14901;DHT22;7542;49.078;9.194;2023-06-10T03:47:14;27.20;45.80
14901;DHT22;7542;49.078;9.194;2023-06-10T03:48:16;27.20;45.80
14901;DHT22;7542;49.078;9.194;2023-06-10T03:49:18;27.30;45.80
14901;DHT22;7542;49.078;9.194;2023-06-10T03:50:20;27.20;45.70
14901;DHT22;7542;49.078;9.194;2023-06-10T03:51:22;27.20;45.80
14901;DHT22;7542;49.078;9.194;2023-06-10T03:52:24;27.30;45.80
14901;DHT22;7542;49.078;9.194;2023-06-10T03:53:26;27.30;45.80
14901;DHT22;7542;49.078;9.194;2023-06-10T03:54:28;27.20;45.80
14901;DHT22;7542;49.078;9.194;2023-06-10T03:55:30;27.30;45.70
14901;DHT22;7542;49.078;9.194;2023-06-10T03:56:32;27.30;45.70
14901;DHT22;7542;49.078;9.194;2023-06-10T03:57:35;27.30;45.70
14901;DHT22;7542;49.078;9.194;2023-06-10T03:58:36;27.20;45.80
14901;DHT22;7542;49.078;9.194;2023-06-10T03:59:38;27.20;45.80
14901;DHT22;7542;49.078;9.194;2023-06-10T04:00:41;27.30;45.80
14901;DHT22;7542;49.078;9.194;2023-06-10T04:01:43;27.20;45.80
14901;DHT22;7542;49.078;9.194;2023-06-10T04:02:45;27.20;45.80
14901;DHT22;7542;49.078;9.194;2023-06-10T04:03:49;27.30;45.90
14901;DHT22;7542;49.078;9.194;2023-06-10T04:04:53;27.20;45.90
14901;DHT22;7542;49.078;9.194;2023-06-10T04:05:55;27.20;45.90
14901;DHT22;7542;49.078;9.194;2023-06-10T04:06:57;27.20;45.90
14901;DHT22;7542;49.078;9.194;2023-06-10T04:07:59;27.20;45.90
14901;DHT22;7542;49.078;9.194;2023-06-10T04:09:03;27.00;45.90
14901;DHT22;7542;49.078;9.194;2023-06-10T04:10:05;27.30;45.90
14901;DHT22;7542;49.078;9.194;2023-06-10T04:11:09;27.20;45.90
14901;DHT22;7542;49.078;9.194;2023-06-10T04:12:11;27.20;45.90
14901;DHT22;7542;49.078;9.194;2023-06-10T04:13:13;27.20;46.00
14901;DHT22;7542;49.078;9.194;2023-06-10T04:14:16;27.30;46.00
14901;DHT22;7542;49.078;9.194;2023-06-10T04:15:18;27.20;46.10
14901;DHT22;7542;49.078;9.194;2023-06-10T04:16:20;27.20;46.10
14901;DHT22;7542;49.078;9.194;2023-06-10T04:17:23;27.30;46.10
14901;DHT22;7542;49.078;9.194;2023-06-10T04:18:25;27.30;46.10
14901;DHT22;7542;49.078;9.194;2023-06-10T04:19:27;27.30;46.10
14901;DHT22;7542;49.078;9.194;2023-06-10T04:20:30;27.30;46.10
14901;DHT22;7542;49.078;9.194;2023-06-10T04:21:32;27.30;46.10
14901;DHT22;7542;49.078;9.194;2023-06-10T04:22:34;27.20;46.10
14901;DHT22;7542;49.078;9.194;2023-06-10T04:23:36;27.20;46.20
14901;DHT22;7542;49.078;9.194;2023-06-10T04:24:39;27.30;46.20
14901;DHT22;7542;49.078;9.194;2023-06-10T04:25:41;27.30;46.10
14901;DHT22;7542;49.078;9.194;2023-06-10T04:26:42;27.20;46.10
14901;DHT22;7542;49.078;9.194;2023-06-10T04:27:44;27.30;46.10
14901;DHT22;7542;49.078;9.194;2023-06-10T04:28:46;27.30;46.20
14901;DHT22;7542;49.078;9.194;2023-06-10T04:29:48;27.30;46.10
14901;DHT22;7542;49.078;9.194;2023-06-10T04:30:50;27.30;46.20
14901;DHT22;7542;49.078;9.194;2023-06-10T04:31:52;27.30;46.10
14901;DHT22;7542;49.078;9.194;2023-06-10T04:32:54;27.40;46.10
14901;DHT22;7542;49.078;9.194;2023-06-10T04:33:56;27.30;46.10
14901;DHT22;7542;49.078;9.194;2023-06-10T04:35:00;27.40;46.10
14901;DHT22;7542;49.078;9.194;2023-06-10T04:36:02;27.40;46.10
14901;DHT22;7542;49.078;9.194;2023-06-10T04:37:05;27.40;46.10
14901;DHT22;7542;49.078;9.194;2023-06-10T04:38:08;27.40;46.10
14901;DHT22;7542;49.078;9.194;2023-06-10T04:39:10;27.40;46.10
14901;DHT22;7542;49.078;9.194;2023-06-10T04:40:12;27.40;46.10
14901;DHT22;7542;49.078;9.194;2023-06-10T04:41:15;27.40;46.10
14901;DHT22;7542;49.078;9.194;2023-06-10T04:42:17;27.50;46.00
14901;DHT22;7542;49.078;9.194;2023-06-10T04:43:19;27.50;46.00
14901;DHT22;7542;49.078;9.194;2023-06-10T04:44:21;27.50;45.90
14901;DHT22;7542;49.078;9.194;2023-06-10T04:45:22;27.50;45.90
14901;DHT22;7542;49.078;9.194;2023-06-10T04:46:24;27.50;45.90
14901;DHT22;7542;49.078;9.194;2023-06-10T04:47:26;27.50;45.90
14901;DHT22;7542;49.078;9.194;2023-06-10T04:48:28;27.50;45.90
14901;DHT22;7542;49.078;9.194;2023-06-10T04:49:30;27.50;45.80
14901;DHT22;7542;49.078;9.194;2023-06-10T04:50:32;27.50;45.80
14901;DHT22;7542;49.078;9.194;2023-06-10T04:51:34;27.50;45.80
14901;DHT22;7542;49.078;9.194;2023-06-10T04:52:37;27.50;45.80
14901;DHT22;7542;49.078;9.194;2023-06-10T04:53:39;27.60;45.80
14901;DHT22;7542;49.078;9.194;2023-06-10T04:54:41;27.50;45.80
14901;DHT22;7542;49.078;9.194;2023-06-10T04:55:43;27.50;45.80
14901;DHT22;7542;49.078;9.194;2023-06-10T04:56:45;27.60;45.90
14901;DHT22;7542;49.078;9.194;2023-06-10T04:57:48;27.60;45.80
14901;DHT22;7542;49.078;9.194;2023-06-10T04:58:53;27.60;45.90
14901;DHT22;7542;49.078;9.194;2023-06-10T04:59:55;27.60;45.90
14901;DHT22;7542;49.078;9.194;2023-06-10T05:00:57;27.60;45.90
14901;DHT22;7542;49.078;9.194;2023-06-10T05:01:59;27.60;45.90
14901;DHT22;7542;49.078;9.194;2023-06-10T05:03:01;27.70;45.90
14901;DHT22;7542;49.078;9.194;2023-06-10T05:04:03;27.60;45.90
14901;DHT22;7542;49.078;9.194;2023-06-10T05:05:06;27.60;45.90
14901;DHT22;7542;49.078;9.194;2023-06-10T05:06:09;27.70;45.90
14901;DHT22;7542;49.078;9.194;2023-06-10T05:07:12;27.60;45.90
14901;DHT22;7542;49.078;9.194;2023-06-10T05:08:14;27.70;45.80
14901;DHT22;7542;49.078;9.194;2023-06-10T05:09:16;27.80;45.80
14901;DHT22;7542;49.078;9.194;2023-06-10T05:10:18;27.70;45.90
14901;DHT22;7542;49.078;9.194;2023-06-10T05:11:20;27.70;45.80
14901;DHT22;7542;49.078;9.194;2023-06-10T05:12:22;27.70;45.90
14901;DHT22;7542;49.078;9.194;2023-06-10T05:13:24;27.70;45.80
14901;DHT22;7542;49.078;9.194;2023-06-10T05:14:26;27.80;45.90
14901;DHT22;7542;49.078;9.194;2023-06-10T05:15:29;27.60;46.00
14901;DHT22;7542;49.078;9.194;2023-06-10T05:16:32;27.70;46.00
14901;DHT22;7542;49.078;9.194;2023-06-10T05:17:34;27.80;46.10
14901;DHT22;7542;49.078;9.194;2023-06-10T05:18:39;27.80;46.10
14901;DHT22;7542;49.078;9.194;2023-06-10T05:19:40;27.70;46.10
14901;DHT22;7542;49.078;9.194;2023-06-10T05:20:44;27.70;46.20
14901;DHT22;7542;49.078;9.194;2023-06-10T05:21:47;27.80;46.30
14901;DHT22;7542;49.078;9.194;2023-06-10T05:22:49;27.80;46.40
14901;DHT22;7542;49.078;9.194;2023-06-10T05:23:51;27.80;46.50
14901;DHT22;7542;49.078;9.194;2023-06-10T05:24:53;27.80;46.50
14901;DHT22;7542;49.078;9.194;2023-06-10T05:25:55;27.80;46.30
14901;DHT22;7542;49.078;9.194;2023-06-10T05:26:57;27.80;46.20
14901;DHT22;7542;49.078;9.194;2023-06-10T05:27:59;27.80;46.10
14901;DHT22;7542;49.078;9.194;2023-06-10T05:29:01;27.80;46.10
14901;DHT22;7542;49.078;9.194;2023-06-10T05:30:03;27.80;46.00
14901;DHT22;7542;49.078;9.194;2023-06-10T05:31:06;27.90;45.90
14901;DHT22;7542;49.078;9.194;2023-06-10T05:32:08;27.90;45.90
14901;DHT22;7542;49.078;9.194;2023-06-10T05:33:10;27.90;45.80
14901;DHT22;7542;49.078;9.194;2023-06-10T05:34:12;27.90;45.80
14901;DHT22;7542;49.078;9.194;2023-06-10T05:35:14;27.90;45.80
14901;DHT22;7542;49.078;9.194;2023-06-10T05:36:16;27.90;45.70
14901;DHT22;7542;49.078;9.194;2023-06-10T05:37:18;27.90;45.70
14901;DHT22;7542;49.078;9.194;2023-06-10T05:38:20;27.90;45.70
14901;DHT22;7542;49.078;9.194;2023-06-10T05:39:22;28.00;46.10
14901;DHT22;7542;49.078;9.194;2023-06-10T05:40:24;28.00;46.10
14901;DHT22;7542;49.078;9.194;2023-06-10T05:41:26;28.00;46.10
14901;DHT22;7542;49.078;9.194;2023-06-10T05:42:28;28.00;46.10
14901;DHT22;7542;49.078;9.194;2023-06-10T05:43:30;28.00;46.10
14901;DHT22;7542;49.078;9.194;2023-06-10T05:44:32;28.00;46.10
14901;DHT22;7542;49.078;9.194;2023-06-10T05:45:34;27.90;45.60
14901;DHT22;7542;49.078;9.194;2023-06-10T05:46:36;28.00;46.00
14901;DHT22;7542;49.078;9.194;2023-06-10T05:47:39;28.00;46.00
14901;DHT22;7542;49.078;9.194;2023-06-10T05:48:41;28.00;46.00
14901;DHT22;7542;49.078;9.194;2023-06-10T05:49:43;28.00;46.00
14901;DHT22;7542;49.078;9.194;2023-06-10T05:50:47;28.00;45.90
14901;DHT22;7542;49.078;9.194;2023-06-10T05:51:50;28.00;45.90
14901;DHT22;7542;49.078;9.194;2023-06-10T05:52:53;28.00;46.00
14901;DHT22;7542;49.078;9.194;2023-06-10T05:53:56;28.10;46.00
14901;DHT22;7542;49.078;9.194;2023-06-10T05:54:58;28.10;46.10
14901;DHT22;7542;49.078;9.194;2023-06-10T05:56:01;28.10;46.00
14901;DHT22;7542;49.078;9.194;2023-06-10T05:57:03;25.90;44.50
14901;DHT22;7542;49.078;9.194;2023-06-10T05:58:05;28.10;45.90
14901;DHT22;7542;49.078;9.194;2023-06-10T05:59:07;28.10;45.80
14901;DHT22;7542;49.078;9.194;2023-06-10T06:00:09;28.10;45.80
14901;DHT22;7542;49.078;9.194;2023-06-10T06:01:12;28.10;45.80
14901;DHT22;7542;49.078;9.194;2023-06-10T06:02:14;28.10;45.80
14901;DHT22;7542;49.078;9.194;2023-06-10T06:03:17;28.10;45.80
14901;DHT22;7542;49.078;9.194;2023-06-10T06:04:19;28.20;45.80
14901;DHT22;7542;49.078;9.194;2023-06-10T06:05:22;28.20;45.70
14901;DHT22;7542;49.078;9.194;2023-06-10T06:06:24;28.10;45.70
14901;DHT22;7542;49.078;9.194;2023-06-10T06:07:26;28.20;45.60
14901;DHT22;7542;49.078;9.194;2023-06-10T06:08:29;28.20;45.70
14901;DHT22;7542;49.078;9.194;2023-06-10T06:09:31;28.20;45.70
14901;DHT22;7542;49.078;9.194;2023-06-10T06:10:33;28.10;45.70
14901;DHT22;7542;49.078;9.194;2023-06-10T06:11:35;28.10;45.70
14901;DHT22;7542;49.078;9.194;2023-06-10T06:12:37;28.20;45.70
14901;DHT22;7542;49.078;9.194;2023-06-10T06:13:39;28.20;45.70
14901;DHT22;7542;49.078;9.194;2023-06-10T06:14:42;28.30;45.60
14901;DHT22;7542;49.078;9.194;2023-06-10T06:15:46;28.20;45.60
14901;DHT22;7542;49.078;9.194;2023-06-10T06:16:48;28.20;45.60
14901;DHT22;7542;49.078;9.194;2023-06-10T06:17:50;28.20;45.50
14901;DHT22;7542;49.078;9.194;2023-06-10T06:18:54;28.30;45.50
14901;DHT22;7542;49.078;9.194;2023-06-10T06:19:56;28.20;45.50
14901;DHT22;7542;49.078;9.194;2023-06-10T06:20:58;28.30;45.50
14901;DHT22;7542;49.078;9.194;2023-06-10T06:22:00;28.20;45.50
14901;DHT22;7542;49.078;9.194;2023-06-10T06:23:02;28.20;45.40
14901;DHT22;7542;49.078;9.194;2023-06-10T06:24:04;28.20;45.50
14901;DHT22;7542;49.078;9.194;2023-06-10T06:25:07;28.30;45.50
14901;DHT22;7542;49.078;9.194;2023-06-10T06:26:09;28.20;45.50
14901;DHT22;7542;49.078;9.194;2023-06-10T06:27:11;28.30;45.50
14901;DHT22;7542;49.078;9.194;2023-06-10T06:28:13;28.30;45.40
14901;DHT22;7542;49.078;9.194;2023-06-10T06:29:15;28.30;45.40
14901;DHT22;7542;49.078;9.194;2023-06-10T06:30:17;28.30;45.40
14901;DHT22;7542;49.078;9.194;2023-06-10T06:31:19;28.30;45.40
14901;DHT22;7542;49.078;9.194;2023-06-10T06:32:22;28.30;45.40
14901;DHT22;7542;49.078;9.194;2023-06-10T06:33:24;28.30;45.40
14901;DHT22;7542;49.078;9.194;2023-06-10T06:34:27;28.30;45.30
14901;DHT22;7542;49.078;9.194;2023-06-10T06:35:33;28.30;45.30
14901;DHT22;7542;49.078;9.194;2023-06-10T06:36:35;28.30;45.30
14901;DHT22;7542;49.078;9.194;2023-06-10T06:37:37;28.30;45.30
14901;DHT22;7542;49.078;9.194;2023-06-10T06:38:42;28.30;45.30
14901;DHT22;7542;49.078;9.194;2023-06-10T06:39:44;28.30;45.30
14901;DHT22;7542;49.078;9.194;2023-06-10T06:40:46;28.30;45.30
14901;DHT22;7542;49.078;9.194;2023-06-10T06:41:48;28.30;45.30
14901;DHT22;7542;49.078;9.194;2023-06-10T06:42:50;28.30;45.20
14901;DHT22;7542;49.078;9.194;2023-06-10T06:43:54;28.30;45.20
14901;DHT22;7542;49.078;9.194;2023-06-10T06:44:56;28.40;45.20
14901;DHT22;7542;49.078;9.194;2023-06-10T06:45:58;28.30;45.20
14901;DHT22;7542;49.078;9.194;2023-06-10T06:47:00;28.30;45.10
14901;DHT22;7542;49.078;9.194;2023-06-10T06:48:02;28.40;45.30
14901;DHT22;7542;49.078;9.194;2023-06-10T06:49:04;28.40;45.30